createdAt,value
2023-01-25T00:00:47.089Z,10.00
2023-01-25T00:03:14.674Z,12.13
2023-01-25T00:05:42.215Z,8.00
2023-01-25T00:08:09.717Z,7.60
2023-01-25T00:10:37.245Z,7.57
2023-01-25T00:13:04.828Z,10.48
2023-01-25T00:15:32.380Z,9.80
2023-01-25T00:17:59.897Z,9.30
2023-01-25T00:20:27.551Z,9.83
2023-01-25T00:22:55.103Z,10.10
2023-01-25T00:25:23.398Z,9.90
2023-01-25T00:27:50.959Z,9.73
2023-01-25T00:30:18.498Z,9.90
2023-01-25T00:32:48.807Z,9.53
2023-01-25T00:35:16.273Z,10.63
2023-01-25T00:37:44.612Z,10.23
2023-01-25T00:40:12.142Z,9.30
2023-01-25T00:42:39.712Z,9.03
2023-01-25T00:45:07.633Z,9.43
2023-01-25T00:47:34.886Z,9.03
2023-01-25T00:50:05.848Z,9.77
2023-01-25T00:52:33.391Z,9.20
2023-01-25T00:55:00.965Z,8.83
2023-01-25T00:57:29.259Z,9.33
2023-01-25T00:59:56.824Z,10.27
2023-01-25T01:02:24.350Z,9.13
2023-01-25T01:04:51.959Z,9.70
2023-01-25T01:07:19.466Z,9.77
2023-01-25T01:09:46.991Z,9.30
2023-01-25T01:12:14.583Z,9.60
2023-01-25T01:14:42.909Z,9.33
2023-01-25T01:17:10.433Z,9.20
2023-01-25T01:19:38.006Z,9.50
2023-01-25T01:22:05.539Z,9.10
2023-01-25T01:24:33.837Z,8.67
2023-01-25T01:27:01.385Z,9.83
2023-01-25T01:29:28.921Z,9.50
2023-01-25T01:31:57.312Z,9.90
2023-01-25T01:34:24.797Z,9.13
2023-01-25T01:36:52.334Z,10.10
2023-01-25T01:39:19.862Z,10.77
2023-01-25T01:41:48.191Z,10.43
2023-01-25T01:44:15.728Z,10.07
2023-01-25T01:46:43.252Z,9.97
2023-01-25T01:49:13.277Z,10.43
2023-01-25T01:51:46.750Z,9.10
2023-01-25T01:54:23.201Z,8.87
2023-01-25T01:56:59.680Z,13.48
2023-01-25T01:59:27.215Z,13.25
2023-01-25T02:01:56.204Z,11.10
2023-01-25T02:04:23.787Z,10.37
2023-01-25T02:06:51.283Z,10.07
2023-01-25T02:09:21.025Z,10.83
2023-01-25T02:11:48.580Z,10.70
2023-01-25T02:14:16.156Z,10.53
2023-01-25T02:16:44.444Z,11.13
2023-01-25T02:19:11.991Z,10.27
2023-01-25T02:21:39.529Z,14.77
2023-01-25T02:24:10.098Z,11.83
2023-01-25T02:26:37.593Z,10.10
2023-01-25T02:29:05.898Z,9.40
2023-01-25T02:31:33.573Z,10.20
2023-01-25T02:34:01.023Z,9.57
2023-01-25T02:36:28.547Z,9.67
2023-01-25T02:39:14.711Z,8.90
2023-01-25T02:41:42.225Z,9.67
2023-01-25T02:44:15.657Z,9.97
2023-01-25T02:46:43.993Z,9.27
2023-01-25T02:49:11.545Z,9.10
2023-01-25T02:51:39.881Z,9.40
2023-01-25T02:54:07.431Z,9.13
2023-01-25T02:56:34.954Z,9.53
2023-01-25T02:59:02.515Z,10.20
2023-01-25T03:01:30.102Z,9.43
2023-01-25T03:03:57.616Z,9.20
2023-01-25T03:06:25.231Z,10.20
2023-01-25T03:08:52.733Z,10.30
2023-01-25T03:11:20.269Z,9.37
2023-01-25T03:13:47.808Z,10.80
2023-01-25T03:16:15.456Z,11.13
2023-01-25T03:18:43.697Z,14.63
2023-01-25T03:21:13.910Z,11.47
2023-01-25T03:23:41.444Z,10.53
2023-01-25T03:26:09.768Z,9.93
2023-01-25T03:28:37.319Z,10.33
2023-01-25T03:31:04.917Z,9.47
2023-01-25T03:33:32.416Z,10.00
2023-01-25T03:35:59.955Z,9.20
2023-01-25T03:38:29.149Z,9.50
2023-01-25T03:40:56.651Z,9.37
2023-01-25T03:43:24.175Z,9.30
2023-01-25T03:45:58.517Z,9.37
2023-01-25T03:48:26.041Z,9.70
2023-01-25T03:50:53.592Z,8.97
2023-01-25T03:53:30.189Z,13.05
2023-01-25T03:56:00.421Z,13.30
2023-01-25T03:58:28.721Z,10.13
2023-01-25T04:00:56.399Z,10.13
2023-01-25T04:03:23.901Z,9.27
2023-01-25T04:05:52.202Z,8.97
2023-01-25T04:08:19.761Z,9.87
2023-01-25T04:10:53.260Z,9.20
2023-01-25T04:13:20.809Z,8.97
2023-01-25T04:15:49.138Z,10.67
2023-01-25T04:18:16.722Z,9.77
2023-01-25T04:20:44.207Z,9.90
2023-01-25T04:23:12.505Z,9.43
2023-01-25T04:25:40.036Z,9.93
2023-01-25T04:28:08.336Z,9.27
2023-01-25T04:30:35.934Z,9.73
2023-01-25T04:33:06.155Z,10.27
2023-01-25T04:35:33.689Z,10.23
2023-01-25T04:38:01.273Z,9.63
2023-01-25T04:40:28.844Z,10.73
2023-01-25T04:42:56.375Z,10.30
2023-01-25T04:45:23.940Z,11.00
2023-01-25T04:47:51.481Z,10.93
2023-01-25T04:50:19.035Z,10.73
2023-01-25T04:52:46.615Z,8.50
2023-01-25T04:55:14.147Z,10.93
2023-01-25T04:57:42.439Z,9.87
2023-01-25T05:00:11.026Z,8.70
2023-01-25T05:02:38.621Z,8.83
2023-01-25T05:05:06.245Z,8.80
2023-01-25T05:07:33.812Z,9.17
2023-01-25T05:10:01.340Z,9.60
2023-01-25T05:12:28.882Z,9.30
2023-01-25T05:14:57.235Z,9.43
2023-01-25T05:17:24.772Z,10.00
2023-01-25T05:19:52.299Z,13.65
2023-01-25T05:22:19.869Z,11.20
2023-01-25T05:24:47.402Z,9.70
2023-01-25T05:27:14.954Z,10.33
2023-01-25T05:29:43.313Z,9.90
2023-01-25T05:32:13.684Z,9.93
2023-01-25T05:34:41.220Z,9.17
2023-01-25T05:37:09.543Z,9.90
2023-01-25T05:39:37.086Z,9.40
2023-01-25T05:42:04.600Z,9.77
2023-01-25T05:44:32.933Z,9.80
2023-01-25T05:47:00.472Z,9.50
2023-01-25T05:49:28.008Z,9.80
2023-01-25T05:51:56.348Z,9.63
2023-01-25T05:54:23.895Z,10.57
2023-01-25T05:56:51.441Z,13.07
2023-01-25T05:59:19.297Z,11.30
2023-01-25T06:01:46.833Z,11.00
2023-01-25T06:04:17.250Z,10.07
2023-01-25T06:06:46.180Z,10.93
2023-01-25T06:09:13.735Z,10.57
2023-01-25T06:11:41.266Z,11.93
2023-01-25T06:14:09.782Z,10.63
2023-01-25T06:16:37.323Z,10.80
2023-01-25T06:19:08.030Z,9.70
2023-01-25T06:21:38.954Z,10.93
2023-01-25T06:24:06.573Z,9.70
2023-01-25T06:26:34.819Z,10.83
2023-01-25T06:29:02.425Z,10.57
2023-01-25T06:31:30.057Z,10.00
2023-01-25T06:33:57.672Z,10.17
2023-01-25T06:36:25.839Z,10.97
2023-01-25T06:38:53.377Z,9.60
2023-01-25T06:41:20.950Z,15.40
2023-01-25T06:43:48.487Z,11.57
2023-01-25T06:46:16.109Z,11.23
2023-01-25T06:48:43.550Z,10.60
2023-01-25T06:51:11.126Z,11.03
2023-01-25T06:53:38.685Z,10.30
2023-01-25T06:56:15.523Z,9.17
2023-01-25T06:58:43.053Z,10.30
2023-01-25T07:01:22.542Z,10.17
2023-01-25T07:03:49.960Z,9.33
2023-01-25T07:06:17.489Z,8.83
2023-01-25T07:08:45.815Z,9.27
2023-01-25T07:11:13.338Z,9.07
2023-01-25T07:13:40.887Z,12.35
2023-01-25T07:16:08.597Z,10.23
2023-01-25T07:18:39.160Z,8.80
2023-01-25T07:21:06.688Z,8.33
2023-01-25T07:23:34.257Z,8.03
2023-01-25T07:26:02.590Z,11.00
2023-01-25T07:28:30.119Z,10.00
2023-01-25T07:30:57.685Z,9.57
2023-01-25T07:33:25.217Z,9.90
2023-01-25T07:35:53.560Z,12.63
2023-01-25T07:38:21.107Z,10.53
2023-01-25T07:40:51.653Z,8.60
2023-01-25T07:43:19.175Z,8.07
2023-01-25T07:45:46.759Z,10.73
2023-01-25T07:48:14.306Z,9.53
2023-01-25T07:50:41.845Z,12.25
2023-01-25T07:53:09.413Z,9.07
2023-01-25T07:55:36.953Z,8.43
2023-01-25T07:58:04.482Z,7.80
2023-01-25T08:00:32.049Z,7.67
2023-01-25T08:03:00.349Z,8.00
2023-01-25T08:05:27.884Z,8.33
2023-01-25T08:07:56.226Z,8.47
2023-01-25T08:10:23.779Z,11.65
2023-01-25T08:12:51.310Z,8.23
2023-01-25T08:15:18.886Z,7.50
2023-01-25T08:17:46.443Z,6.57
2023-01-25T08:20:13.975Z,7.37
2023-01-25T08:22:42.297Z,7.53
2023-01-25T08:25:10.133Z,7.57
2023-01-25T08:27:37.364Z,10.68
2023-01-25T08:30:05.812Z,9.23
2023-01-25T08:32:33.347Z,7.40
2023-01-25T08:35:00.866Z,11.18
2023-01-25T08:37:28.462Z,8.50
2023-01-25T08:39:55.977Z,8.03
2023-01-25T08:42:24.304Z,8.03
2023-01-25T08:44:51.899Z,8.30
2023-01-25T08:47:19.427Z,9.03
2023-01-25T08:49:46.964Z,8.60
2023-01-25T08:52:14.537Z,7.90
2023-01-25T08:54:44.530Z,7.97
2023-01-25T08:57:12.074Z,7.03
2023-01-25T08:59:39.674Z,7.73
2023-01-25T09:02:07.171Z,8.33
2023-01-25T09:04:35.472Z,7.53
2023-01-25T09:07:03.160Z,7.67
2023-01-25T09:09:30.706Z,9.00
2023-01-25T09:11:58.230Z,9.17
2023-01-25T09:14:26.585Z,9.10
2023-01-25T09:16:54.123Z,8.27
2023-01-25T09:19:21.632Z,7.97
2023-01-25T09:21:50.238Z,7.60
2023-01-25T09:24:18.923Z,6.90
2023-01-25T09:26:55.899Z,7.70
2023-01-25T09:29:15.525Z,8.13
2023-01-25T09:31:45.834Z,8.90
2023-01-25T09:34:13.297Z,8.40
2023-01-25T09:36:40.841Z,7.57
2023-01-25T09:39:08.377Z,8.87
2023-01-25T09:42:14.998Z,8.50
2023-01-25T09:44:42.844Z,8.50
2023-01-25T09:47:41.097Z,8.77
2023-01-25T09:50:32.918Z,8.23
2023-01-25T09:53:09.267Z,7.73
2023-01-25T09:55:37.591Z,8.70
2023-01-25T09:58:05.112Z,7.93
2023-01-25T10:00:32.724Z,7.97
2023-01-25T10:03:06.122Z,8.00
2023-01-25T10:05:33.570Z,7.63
2023-01-25T10:08:07.145Z,8.50
2023-01-25T10:10:41.241Z,11.35
2023-01-25T10:13:13.576Z,8.83
2023-01-25T10:15:41.132Z,10.07
2023-01-25T10:18:32.943Z,9.88
2023-01-25T10:21:08.951Z,8.03
2023-01-25T10:23:48.380Z,7.43
2023-01-25T10:26:28.080Z,8.13
2023-01-25T10:29:01.111Z,7.33
2023-01-25T10:31:41.446Z,10.50
2023-01-25T10:34:20.730Z,8.33
2023-01-25T10:36:48.278Z,8.33
2023-01-25T10:39:15.860Z,8.93
2023-01-25T10:41:43.446Z,7.77
2023-01-25T10:44:22.326Z,8.23
2023-01-25T10:46:50.801Z,7.87
2023-01-25T10:49:37.077Z,7.27
2023-01-25T10:52:17.410Z,7.07
2023-01-25T10:54:44.926Z,7.00
2023-01-25T10:57:12.461Z,7.43
2023-01-25T10:59:40.818Z,7.30
2023-01-25T11:02:35.688Z,7.77
2023-01-25T11:05:24.514Z,7.73
2023-01-25T11:07:52.788Z,10.25
2023-01-25T11:10:20.332Z,9.00
2023-01-25T11:12:47.932Z,8.33
2023-01-25T11:15:24.531Z,7.13
2023-01-25T11:17:52.055Z,7.90
2023-01-25T11:20:19.614Z,8.23
2023-01-25T11:22:55.598Z,7.70
2023-01-25T11:25:29.376Z,6.80
2023-01-25T11:28:18.441Z,7.90
2023-01-25T11:30:46.058Z,7.53
2023-01-25T11:33:13.549Z,7.63
2023-01-25T11:35:56.169Z,7.43
2023-01-25T11:38:23.722Z,8.20
2023-01-25T11:40:59.986Z,8.17
2023-01-25T11:43:33.707Z,8.83
2023-01-25T11:46:10.414Z,7.70
2023-01-25T11:48:53.020Z,8.13
2023-01-25T11:51:20.544Z,7.37
2023-01-25T11:54:06.933Z,8.07
2023-01-25T11:56:36.976Z,7.20
2023-01-25T11:59:22.370Z,8.30
2023-01-25T12:01:55.396Z,7.70
2023-01-25T12:04:50.269Z,7.60
2023-01-25T12:07:17.798Z,7.30
2023-01-25T12:09:47.891Z,7.40
2023-01-25T12:12:16.209Z,7.10
2023-01-25T12:14:49.412Z,6.83
2023-01-25T12:17:16.935Z,9.75
2023-01-25T12:20:02.586Z,8.33
2023-01-25T12:22:38.960Z,7.27
2023-01-25T12:25:30.607Z,6.37
2023-01-25T12:28:13.085Z,6.73
2023-01-25T12:31:02.360Z,8.07
2023-01-25T12:33:32.550Z,7.43
2023-01-25T12:36:12.129Z,8.37
2023-01-25T12:39:03.993Z,11.60
2023-01-25T12:41:40.144Z,7.77
2023-01-25T12:44:22.691Z,6.40
2023-01-25T12:46:56.923Z,8.27
2023-01-25T12:49:48.954Z,7.63
2023-01-25T12:52:32.064Z,9.27
2023-01-25T12:55:02.389Z,6.90
2023-01-25T12:57:44.536Z,6.87
2023-01-25T13:00:23.996Z,8.55
2023-01-25T13:02:57.012Z,6.37
2023-01-25T13:05:33.360Z,5.93
2023-01-25T13:08:06.837Z,5.00
2023-01-25T13:10:34.374Z,7.57
2023-01-25T13:13:01.920Z,6.53
2023-01-25T13:15:41.535Z,5.80
2023-01-25T13:18:25.181Z,6.40
2023-01-25T13:20:53.577Z,5.70
2023-01-25T13:23:36.112Z,6.33
2023-01-25T13:26:22.401Z,6.77
2023-01-25T13:28:52.763Z,6.90
2023-01-25T13:31:51.089Z,6.97
2023-01-25T13:34:11.289Z,8.57
2023-01-25T13:36:41.630Z,7.20
2023-01-25T13:39:32.956Z,6.83
2023-01-25T13:42:00.524Z,5.97
2023-01-25T13:44:30.701Z,8.85
2023-01-25T13:46:58.262Z,9.00
2023-01-25T13:49:25.893Z,8.50
2023-01-25T13:51:54.201Z,7.47
2023-01-25T13:54:21.736Z,6.83
2023-01-25T13:56:50.081Z,6.53
2023-01-25T13:59:26.391Z,7.03
2023-01-25T14:01:53.954Z,7.20
2023-01-25T14:04:22.226Z,6.33
2023-01-25T14:06:49.755Z,6.60
2023-01-25T14:09:17.360Z,7.07
2023-01-25T14:11:50.646Z,6.87
2023-01-25T14:14:27.324Z,6.63
2023-01-25T14:17:16.366Z,6.33
2023-01-25T14:19:46.674Z,6.33
2023-01-25T14:22:25.865Z,6.70
2023-01-25T14:25:05.535Z,6.63
2023-01-25T14:27:33.070Z,6.53
2023-01-25T14:30:00.608Z,6.40
2023-01-25T14:32:28.177Z,7.27
2023-01-25T14:34:55.735Z,6.53
2023-01-25T14:37:23.254Z,6.87
2023-01-25T14:39:51.606Z,6.70
2023-01-25T14:42:19.143Z,6.03
2023-01-25T14:44:46.668Z,6.20
2023-01-25T14:47:20.327Z,6.43
2023-01-25T14:49:47.890Z,6.77
2023-01-25T14:52:15.383Z,6.83
2023-01-25T14:54:48.491Z,7.43
2023-01-25T14:57:28.010Z,6.97
2023-01-25T14:59:55.588Z,6.73
2023-01-25T15:02:26.061Z,6.50
2023-01-25T15:05:04.854Z,6.50
2023-01-25T15:07:44.998Z,6.87
2023-01-25T15:10:25.302Z,7.07
2023-01-25T15:13:13.724Z,7.07
2023-01-25T15:15:32.969Z,7.00
2023-01-25T15:18:00.520Z,7.43
2023-01-25T15:20:30.915Z,6.80
2023-01-25T15:23:02.194Z,6.77
2023-01-25T15:25:29.750Z,7.10
2023-01-25T15:27:57.313Z,6.43
2023-01-25T15:30:24.863Z,6.30
2023-01-25T15:32:53.133Z,7.27
2023-01-25T15:35:20.721Z,7.40
2023-01-25T15:37:49.396Z,7.37
2023-01-25T15:40:15.768Z,6.97
2023-01-25T15:42:43.389Z,7.87
2023-01-25T15:45:11.044Z,7.07
2023-01-25T15:47:38.594Z,7.33
2023-01-25T15:50:06.313Z,9.57
2023-01-25T15:52:33.832Z,6.70
2023-01-25T15:55:02.396Z,6.07
2023-01-25T15:57:28.973Z,6.47
2023-01-25T15:59:56.507Z,7.43
2023-01-25T16:02:24.111Z,6.37
2023-01-25T16:04:51.639Z,6.43
2023-01-25T16:07:21.830Z,6.33
2023-01-25T16:09:49.355Z,7.43
2023-01-25T16:12:17.974Z,7.07
2023-01-25T16:14:45.519Z,7.20
2023-01-25T16:17:16.776Z,6.50
2023-01-25T16:19:44.349Z,6.43
2023-01-25T16:22:11.888Z,6.00
2023-01-25T16:24:39.685Z,7.07
2023-01-25T16:27:07.759Z,6.43
2023-01-25T16:29:35.286Z,6.97
2023-01-25T16:32:02.881Z,8.40
2023-01-25T16:34:30.537Z,10.00
2023-01-25T16:36:58.067Z,8.13
2023-01-25T16:39:25.691Z,7.23
2023-01-25T16:41:53.950Z,7.07
2023-01-25T16:44:21.483Z,6.90
2023-01-25T16:46:49.125Z,6.73
2023-01-25T16:49:22.669Z,7.33
2023-01-25T16:51:50.200Z,8.43
2023-01-25T16:54:17.744Z,7.40
2023-01-25T16:56:45.285Z,8.00
2023-01-25T16:59:13.595Z,6.70
2023-01-25T17:01:41.177Z,7.03
2023-01-25T17:04:08.705Z,7.63
2023-01-25T17:06:36.231Z,8.77
2023-01-25T17:09:20.624Z,9.03
2023-01-25T17:11:32.127Z,9.27
2023-01-25T17:13:59.660Z,8.13
2023-01-25T17:16:27.196Z,8.53
2023-01-25T17:18:54.805Z,7.70
2023-01-25T17:21:22.338Z,8.33
2023-01-25T17:23:49.919Z,7.70
2023-01-25T17:26:17.463Z,6.63
2023-01-25T17:28:44.975Z,7.00
2023-01-25T17:31:19.350Z,7.10
2023-01-25T17:33:47.926Z,7.47
2023-01-25T17:36:15.532Z,12.88
2023-01-25T17:38:43.071Z,10.17
2023-01-25T17:41:11.020Z,10.87
2023-01-25T17:43:38.528Z,9.80
2023-01-25T17:46:12.581Z,9.37
2023-01-25T17:48:40.877Z,9.93
2023-01-25T17:51:08.410Z,9.83
2023-01-25T17:53:35.958Z,11.87
2023-01-25T17:56:03.528Z,10.50
2023-01-25T17:58:31.065Z,14.30
2023-01-25T18:01:12.586Z,12.10
2023-01-25T18:03:26.495Z,11.23
2023-01-25T18:05:57.008Z,10.97
2023-01-25T18:08:25.287Z,10.00
2023-01-25T18:10:52.863Z,11.77
2023-01-25T18:13:20.438Z,10.70
2023-01-25T18:15:48.739Z,9.43
2023-01-25T18:18:16.284Z,11.07
2023-01-25T18:20:43.831Z,11.67
2023-01-25T18:23:11.378Z,11.73
2023-01-25T18:25:38.958Z,10.57
2023-01-25T18:28:06.503Z,11.97
2023-01-25T18:30:37.264Z,10.80
2023-01-25T18:33:04.780Z,10.60
2023-01-25T18:35:33.087Z,10.40
2023-01-25T18:38:00.626Z,12.13
2023-01-25T18:40:28.219Z,10.53
2023-01-25T18:42:55.743Z,11.50
2023-01-25T18:45:23.263Z,11.03
2023-01-25T18:47:50.843Z,14.50
2023-01-25T18:50:18.385Z,11.83
2023-01-25T18:52:46.678Z,11.47
2023-01-25T18:55:14.247Z,10.93
2023-01-25T18:57:41.812Z,11.93
2023-01-25T19:00:09.455Z,12.20
2023-01-25T19:02:37.926Z,10.90
2023-01-25T19:05:05.397Z,12.20
2023-01-25T19:07:32.921Z,12.33
2023-01-25T19:10:00.524Z,12.83
2023-01-25T19:12:28.070Z,10.73
2023-01-25T19:14:56.370Z,10.40
2023-01-25T19:17:23.934Z,9.87
2023-01-25T19:19:51.456Z,9.63
2023-01-25T19:22:19.749Z,9.93
2023-01-25T19:24:47.351Z,10.57
2023-01-25T19:27:14.866Z,9.37
2023-01-25T19:29:43.155Z,9.13
2023-01-25T19:32:10.771Z,8.93
2023-01-25T19:34:38.311Z,9.33
2023-01-25T19:37:05.835Z,8.13
2023-01-25T19:39:33.441Z,12.05
2023-01-25T19:42:00.978Z,7.90
2023-01-25T19:44:28.513Z,10.35
2023-01-25T19:46:56.075Z,8.40
2023-01-25T19:49:23.603Z,8.73
2023-01-25T19:51:51.908Z,7.50
2023-01-25T19:54:19.769Z,9.40
2023-01-25T19:56:47.308Z,7.90
2023-01-25T19:59:18.332Z,6.17
2023-01-25T20:01:45.971Z,5.50
2023-01-25T20:04:13.460Z,6.60
2023-01-25T20:06:41.761Z,6.73
2023-01-25T20:09:09.948Z,7.07
2023-01-25T20:11:37.469Z,7.10
2023-01-25T20:14:05.751Z,8.87
2023-01-25T20:16:34.109Z,6.13
2023-01-25T20:19:01.649Z,6.47
2023-01-25T20:21:29.184Z,6.70
2023-01-25T20:23:56.784Z,6.37
2023-01-25T20:26:24.588Z,6.60
2023-01-25T20:28:52.118Z,6.97
2023-01-25T20:31:29.245Z,6.43
2023-01-25T20:33:56.722Z,5.60
2023-01-25T20:36:24.231Z,6.40
2023-01-25T20:38:52.585Z,5.40
2023-01-25T20:41:20.107Z,5.80
2023-01-25T20:43:50.369Z,6.10
2023-01-25T20:46:17.950Z,6.07
2023-01-25T20:48:45.465Z,6.50
2023-01-25T20:51:15.929Z,6.30
2023-01-25T20:53:43.486Z,6.37
2023-01-25T20:56:11.008Z,6.17
2023-01-25T20:58:38.552Z,6.90
2023-01-25T21:01:06.145Z,8.80
2023-01-25T21:03:33.670Z,6.67
2023-01-25T21:06:01.203Z,8.03
2023-01-25T21:08:28.776Z,8.37
2023-01-25T21:10:56.317Z,6.80
2023-01-25T21:13:23.851Z,6.57
2023-01-25T21:16:06.577Z,7.40
2023-01-25T21:18:34.090Z,7.13
2023-01-25T21:21:01.642Z,6.40
2023-01-25T21:23:29.191Z,6.50
2023-01-25T21:25:56.757Z,6.87
2023-01-25T21:28:24.285Z,7.03
2023-01-25T21:30:51.902Z,6.90
2023-01-25T21:33:19.433Z,6.80
2023-01-25T21:35:46.951Z,7.17
2023-01-25T21:38:15.674Z,5.90
2023-01-25T21:40:43.199Z,6.50
2023-01-25T21:43:10.734Z,6.30
2023-01-25T21:45:57.302Z,5.93
2023-01-25T21:48:43.088Z,6.73
2023-01-25T21:51:31.165Z,6.63
2023-01-25T21:53:58.687Z,5.77
2023-01-25T21:56:26.235Z,6.97
2023-01-25T21:58:53.836Z,7.10
2023-01-25T22:01:21.379Z,6.47
2023-01-25T22:03:51.648Z,6.43
2023-01-25T22:06:20.000Z,6.67
2023-01-25T22:08:47.557Z,6.20
2023-01-25T22:11:15.063Z,9.25
2023-01-25T22:13:42.639Z,7.07
2023-01-25T22:16:10.177Z,6.70
2023-01-25T22:18:38.454Z,6.80
2023-01-25T22:21:06.009Z,6.70
2023-01-25T22:23:33.533Z,6.97
2023-01-25T22:26:04.645Z,6.37
2023-01-25T22:28:47.744Z,6.47
2023-01-25T22:31:15.329Z,6.20
2023-01-25T22:33:43.587Z,6.47
2023-01-25T22:36:11.177Z,6.13
2023-01-25T22:38:38.710Z,6.93
2023-01-25T22:41:09.252Z,9.60
2023-01-25T22:43:36.829Z,7.40
2023-01-25T22:46:04.353Z,7.70
2023-01-25T22:51:11.258Z,7.70
2023-01-25T22:53:38.811Z,10.70
2023-01-25T22:56:06.465Z,8.33
2023-01-25T22:58:34.043Z,8.27
2023-01-25T23:01:01.571Z,8.07
2023-01-25T23:03:29.148Z,7.03
2023-01-25T23:06:03.103Z,6.97
2023-01-25T23:08:32.835Z,6.90
2023-01-25T23:11:01.261Z,7.50
2023-01-25T23:13:28.825Z,7.57
2023-01-25T23:15:56.384Z,7.83
2023-01-25T23:18:41.883Z,10.45
2023-01-25T23:21:09.408Z,7.87
2023-01-25T23:23:36.939Z,10.30
2023-01-25T23:26:04.525Z,10.03
2023-01-25T23:28:32.054Z,7.37
2023-01-25T23:31:11.527Z,7.90
2023-01-25T23:33:38.851Z,8.80
2023-01-25T23:36:09.377Z,9.03
2023-01-25T23:38:36.951Z,9.07
2023-01-25T23:41:04.465Z,8.57
2023-01-25T23:43:32.760Z,8.07
2023-01-25T23:46:01.143Z,7.10
2023-01-25T23:48:28.637Z,8.23
2023-01-25T23:50:56.170Z,8.03
2023-01-25T23:53:23.744Z,9.27
2023-01-25T23:55:56.723Z,7.73
2023-01-25T23:58:24.254Z,7.57
